Angus, Minnesota
Current Conditions -  °F | °C
As of 12:15 PM on Tuesday 21 Oct 2014 (Local Time) from KCKN Reporting Station
Clear Clear  
Wind Chill: 14°   Ceiling: Unl
Heat Index: 14°   Visibility: 10mi
Dew Point:   Wind: 23mph
Humidity: 59%   Direction: 170°S
Pressure: 30"   Gusts: NA
Location:  48.08°N, 96.7°W
Report Text: KCKN 211715Z AUTO 17020KT 10SM CLR 14/06 A3000 RMK AO2
Loading
Personal Weather Stations






























Interactive Weather Map
Tropical Storm Tracking
New forecast layout! Learn more

10-Day Weather Forecast

Advertisements
Track Severe Weather on mobile